Piarco FIR Weather

TAPA 180400Z 08013KT 9999 FEW018 SCT036 27/23 Q1014 NOSIG

TBPB 180500Z 10019KT 9999 FEW020 27/23 Q1010 NOSIG

TDPD 180000Z 12010KT 9999 SCT020 28/23 Q1014

TFFF 180500Z AUTO 08005KT 9999 FEW029 SCT180 25/23 Q1012 TEMPO 11015G25KT 1000 TSRA SCT010CB

TFFR 180500Z AUTO 05003KT 9000 FEW019 OVC160 26/23 Q1013 TEMPO 10015G30KT 1000 TSRA BKN010CB

TGPY 180500Z 12016KT 9999 SCT017 BKN037 27/25 Q1010 NOSIG

TKPK 180100Z 05008KT 9999 FEW018 BKN045 27/25 Q1016

TKPN 180000Z 11011KT 9999 -SHRA FEW016TCU 27/22 Q1015

TLPC 180000Z 10005KT 9999 BKN022 26/24 Q1013 TEMPO 5000 SHRA

TLPL 180400Z 10020KT 9999 -SHRA FEW014CB SCT022 27/24 Q1012 NOSIG

TTCP 180400Z 10009KT 9999 -SHRA VCSH FEW012CB SCT038 25/22 Q1010 TEMPO -SHRA RMK CB E VCSH NE E SE

TTPP 180400Z 00000KT 8000 -SHRA FEW015 SCT040 25/25 Q1010 TEMPO -SHRA RMK JP NE TO E TO SE TO S

TVSV 152200Z 00000KT 9999 FEW022 SCT032 28/23 Q1014 NOSIG